
<gpx xmlns="http://www.topografix.com/GPX/1/1" xmlns:gpxx="http://www.garmin.com/xmlschemas/GpxExtensions/v3" xmlns:xsi="http://www.w3.org/2001/XMLSchema-instance" version="1.1" creator="Adze - https://getadze.com/" xsi:schemaLocation="http://www.topografix.com/GPX/1/1 http://www.topografix.com/GPX/1/1/gpx.xsd http://www.garmin.com/xmlschemas/GpxExtensions/v3 http://www.garmin.com/xmlschemas/GpxExtensionsv3.xsd">
    <metadata>
        <name>Untitled Document</name>
        <link href="http://www.garmin.com"></link>
        <time>2018-02-27T06:22:15.919Z</time>
    </metadata>
    <wpt lon="101.406549" lat="14.216801">
        <ele>34.000000</ele>
        <name>Khao Yai Grand View</name>
        <cmt>23-JUN-12 13:03:32</cmt>
        <desc>23-JUN-12 13:03:32</desc>
        <sym>Lodging</sym>
        <extensions>
            <gpxx:WaypointExtension xmlns:gpxx="http://www.garmin.com/xmlschemas/GpxExtensions/v3">
                <gpxx:DisplayMode>SymbolOnly</gpxx:DisplayMode>
            </gpxx:WaypointExtension>
        </extensions>
    </wpt>
    <wpt lon="101.403993" lat="14.153505">
        <ele>73.000000</ele>
        <name>Water Saturday</name>
        <cmt>23-JUN-12 15:22:24</cmt>
        <desc>23-JUN-12 15:22:24</desc>
        <sym>Drinking Water</sym>
        <extensions>
            <gpxx:WaypointExtension xmlns:gpxx="http://www.garmin.com/xmlschemas/GpxExtensions/v3">
                <gpxx:DisplayMode>SymbolOnly</gpxx:DisplayMode>
            </gpxx:WaypointExtension>
        </extensions>
    </wpt>
    <trk>
        <name>Sat - Shortcut</name>
        <extensions>
            <gpxx:TrackExtension xmlns:gpxx="http://www.garmin.com/xmlschemas/GpxExtensions/v3">
                <gpxx:DisplayColor>DarkRed</gpxx:DisplayColor>
            </gpxx:TrackExtension>
        </extensions>
        <trkseg>
            <trkpt lon="101.389039" lat="14.166220">
                <ele>142.893066</ele>
                <time>2012-06-23T07:56:22Z</time>
            </trkpt>
            <trkpt lon="101.389051" lat="14.166223">
                <ele>142.893066</ele>
                <time>2012-06-23T07:56:23Z</time>
            </trkpt>
            <trkpt lon="101.389302" lat="14.166208">
                <ele>141.931763</ele>
                <time>2012-06-23T07:56:37Z</time>
            </trkpt>
            <trkpt lon="101.389622" lat="14.166202">
                <ele>138.567261</ele>
                <time>2012-06-23T07:56:49Z</time>
            </trkpt>
            <trkpt lon="101.389811" lat="14.166405">
                <ele>137.125244</ele>
                <time>2012-06-23T07:57:00Z</time>
            </trkpt>
            <trkpt lon="101.389878" lat="14.166476">
                <ele>136.163940</ele>
                <time>2012-06-23T07:57:03Z</time>
            </trkpt>
            <trkpt lon="101.389982" lat="14.166503">
                <ele>135.683106</ele>
                <time>2012-06-23T07:57:07Z</time>
            </trkpt>
            <trkpt lon="101.390330" lat="14.166509">
                <ele>133.279907</ele>
                <time>2012-06-23T07:57:23Z</time>
            </trkpt>
            <trkpt lon="101.390496" lat="14.166387">
                <ele>130.876709</ele>
                <time>2012-06-23T07:57:34Z</time>
            </trkpt>
            <trkpt lon="101.390727" lat="14.166392">
                <ele>127.511963</ele>
                <time>2012-06-23T07:57:47Z</time>
            </trkpt>
            <trkpt lon="101.390924" lat="14.166473">
                <ele>125.589355</ele>
                <time>2012-06-23T07:58:03Z</time>
            </trkpt>
            <trkpt lon="101.391020" lat="14.166477">
                <ele>124.628052</ele>
                <time>2012-06-23T07:58:13Z</time>
            </trkpt>
            <trkpt lon="101.391093" lat="14.166443">
                <ele>124.147339</ele>
                <time>2012-06-23T07:58:18Z</time>
            </trkpt>
            <trkpt lon="101.391212" lat="14.166339">
                <ele>122.705444</ele>
                <time>2012-06-23T07:58:25Z</time>
            </trkpt>
            <trkpt lon="101.391538" lat="14.166306">
                <ele>120.302124</ele>
                <time>2012-06-23T07:58:40Z</time>
            </trkpt>
            <trkpt lon="101.391631" lat="14.166298">
                <ele>118.860107</ele>
                <time>2012-06-23T07:58:51Z</time>
            </trkpt>
            <trkpt lon="101.391717" lat="14.166303">
                <ele>118.379395</ele>
                <time>2012-06-23T07:59:03Z</time>
            </trkpt>
            <trkpt lon="101.391876" lat="14.166292">
                <ele>115.976196</ele>
                <time>2012-06-23T07:59:19Z</time>
            </trkpt>
            <trkpt lon="101.392079" lat="14.166294">
                <ele>112.611572</ele>
                <time>2012-06-23T07:59:33Z</time>
            </trkpt>
            <trkpt lon="101.392117" lat="14.166278">
                <ele>112.611572</ele>
                <time>2012-06-23T07:59:45Z</time>
            </trkpt>
            <trkpt lon="101.392182" lat="14.166265">
                <ele>111.650269</ele>
                <time>2012-06-23T08:00:00Z</time>
            </trkpt>
            <trkpt lon="101.392231" lat="14.166329">
                <ele>112.611572</ele>
                <time>2012-06-23T08:00:14Z</time>
            </trkpt>
            <trkpt lon="101.392290" lat="14.166405">
                <ele>112.611572</ele>
                <time>2012-06-23T08:00:30Z</time>
            </trkpt>
            <trkpt lon="101.392367" lat="14.166455">
                <ele>115.976196</ele>
                <time>2012-06-23T08:00:48Z</time>
            </trkpt>
            <trkpt lon="101.392462" lat="14.166462">
                <ele>115.976196</ele>
                <time>2012-06-23T08:01:01Z</time>
            </trkpt>
            <trkpt lon="101.392496" lat="14.166426">
                <ele>116.456787</ele>
                <time>2012-06-23T08:01:07Z</time>
            </trkpt>
            <trkpt lon="101.392730" lat="14.166437">
                <ele>116.456787</ele>
                <time>2012-06-23T08:01:24Z</time>
            </trkpt>
            <trkpt lon="101.392855" lat="14.166460">
                <ele>116.456787</ele>
                <time>2012-06-23T08:01:37Z</time>
            </trkpt>
            <trkpt lon="101.392976" lat="14.166523">
                <ele>119.340820</ele>
                <time>2012-06-23T08:01:58Z</time>
            </trkpt>
            <trkpt lon="101.393040" lat="14.166570">
                <ele>124.147339</ele>
                <time>2012-06-23T08:02:18Z</time>
            </trkpt>
            <trkpt lon="101.393168" lat="14.166681">
                <ele>128.473389</ele>
                <time>2012-06-23T08:02:38Z</time>
            </trkpt>
            <trkpt lon="101.393228" lat="14.166749">
                <ele>129.434692</ele>
                <time>2012-06-23T08:02:48Z</time>
            </trkpt>
            <trkpt lon="101.393224" lat="14.166913">
                <ele>128.954102</ele>
                <time>2012-06-23T08:03:07Z</time>
            </trkpt>
            <trkpt lon="101.393275" lat="14.167032">
                <ele>132.799316</ele>
                <time>2012-06-23T08:03:22Z</time>
            </trkpt>
            <trkpt lon="101.393311" lat="14.167101">
                <ele>134.241211</ele>
                <time>2012-06-23T08:03:31Z</time>
            </trkpt>
            <trkpt lon="101.393398" lat="14.167197">
                <ele>137.605835</ele>
                <time>2012-06-23T08:03:44Z</time>
            </trkpt>
            <trkpt lon="101.393416" lat="14.167338">
                <ele>140.009155</ele>
                <time>2012-06-23T08:04:00Z</time>
            </trkpt>
            <trkpt lon="101.393442" lat="14.167504">
                <ele>141.451050</ele>
                <time>2012-06-23T08:04:18Z</time>
            </trkpt>
            <trkpt lon="101.393444" lat="14.167514">
                <ele>141.931763</ele>
                <time>2012-06-23T08:04:19Z</time>
            </trkpt>
            <trkpt lon="101.393471" lat="14.167641">
                <ele>141.931763</ele>
                <time>2012-06-23T08:04:36Z</time>
            </trkpt>
            <trkpt lon="101.393535" lat="14.167738">
                <ele>141.931763</ele>
                <time>2012-06-23T08:04:46Z</time>
            </trkpt>
            <trkpt lon="101.393550" lat="14.167753">
                <ele>141.931763</ele>
                <time>2012-06-23T08:04:48Z</time>
            </trkpt>
            <trkpt lon="101.393604" lat="14.167870">
                <ele>142.893066</ele>
                <time>2012-06-23T08:05:04Z</time>
            </trkpt>
            <trkpt lon="101.393666" lat="14.167932">
                <ele>149.141602</ele>
                <time>2012-06-23T08:05:23Z</time>
            </trkpt>
            <trkpt lon="101.393739" lat="14.168093">
                <ele>150.103027</ele>
                <time>2012-06-23T08:05:42Z</time>
            </trkpt>
            <trkpt lon="101.393816" lat="14.168250">
                <ele>152.025757</ele>
                <time>2012-06-23T08:05:59Z</time>
            </trkpt>
            <trkpt lon="101.393897" lat="14.168404">
                <ele>153.467651</ele>
                <time>2012-06-23T08:06:17Z</time>
            </trkpt>
            <trkpt lon="101.393933" lat="14.168418">
                <ele>154.428955</ele>
                <time>2012-06-23T08:06:24Z</time>
            </trkpt>
        </trkseg>
    </trk>
    <trk>
        <name>Saturday</name>
        <extensions>
            <gpxx:TrackExtension xmlns:gpxx="http://www.garmin.com/xmlschemas/GpxExtensions/v3">
                <gpxx:DisplayColor>Red</gpxx:DisplayColor>
            </gpxx:TrackExtension>
        </extensions>
        <trkseg>
            <trkpt lon="101.406498" lat="14.216823">
                <ele>35.706055</ele>
                <time>2012-06-23T06:03:28Z</time>
            </trkpt>
            <trkpt lon="101.407203" lat="14.216936">
                <ele>31.380127</ele>
                <time>2012-06-23T06:03:56Z</time>
            </trkpt>
            <trkpt lon="101.407341" lat="14.217067">
                <ele>31.380127</ele>
                <time>2012-06-23T06:04:02Z</time>
            </trkpt>
            <trkpt lon="101.407142" lat="14.217242">
                <ele>31.380127</ele>
                <time>2012-06-23T06:04:09Z</time>
            </trkpt>
            <trkpt lon="101.406359" lat="14.217473">
                <ele>32.341553</ele>
                <time>2012-06-23T06:04:27Z</time>
            </trkpt>
            <trkpt lon="101.406098" lat="14.217565">
                <ele>32.341553</ele>
                <time>2012-06-23T06:04:34Z</time>
            </trkpt>
            <trkpt lon="101.405928" lat="14.217802">
                <ele>32.822266</ele>
                <time>2012-06-23T06:04:41Z</time>
            </trkpt>
            <trkpt lon="101.405925" lat="14.218101">
                <ele>33.302856</ele>
                <time>2012-06-23T06:04:48Z</time>
            </trkpt>
            <trkpt lon="101.405935" lat="14.218184">
                <ele>33.302856</ele>
                <time>2012-06-23T06:04:50Z</time>
            </trkpt>
            <trkpt lon="101.405721" lat="14.218306">
                <ele>32.822266</ele>
                <time>2012-06-23T06:04:57Z</time>
            </trkpt>
            <trkpt lon="101.405035" lat="14.216738">
                <ele>31.380127</ele>
                <time>2012-06-23T06:06:02Z</time>
            </trkpt>
            <trkpt lon="101.404309" lat="14.215778">
                <ele>30.899536</ele>
                <time>2012-06-23T06:06:24Z</time>
            </trkpt>
            <trkpt lon="101.396270" lat="14.207714">
                <ele>28.976929</ele>
                <time>2012-06-23T06:09:44Z</time>
            </trkpt>
            <trkpt lon="101.394783" lat="14.206210">
                <ele>23.208984</ele>
                <time>2012-06-23T06:10:13Z</time>
            </trkpt>
            <trkpt lon="101.394828" lat="14.206026">
                <ele>24.170288</ele>
                <time>2012-06-23T06:10:18Z</time>
            </trkpt>
            <trkpt lon="101.394997" lat="14.205941">
                <ele>24.651001</ele>
                <time>2012-06-23T06:10:22Z</time>
            </trkpt>
            <trkpt lon="101.395719" lat="14.205601">
                <ele>26.573608</ele>
                <time>2012-06-23T06:10:37Z</time>
            </trkpt>
            <trkpt lon="101.396994" lat="14.205025">
                <ele>27.054321</ele>
                <time>2012-06-23T06:11:04Z</time>
            </trkpt>
            <trkpt lon="101.398532" lat="14.203634">
                <ele>25.612305</ele>
                <time>2012-06-23T06:11:38Z</time>
            </trkpt>
            <trkpt lon="101.401701" lat="14.201223">
                <ele>26.092896</ele>
                <time>2012-06-23T06:12:46Z</time>
            </trkpt>
            <trkpt lon="101.403041" lat="14.200008">
                <ele>26.573608</ele>
                <time>2012-06-23T06:13:22Z</time>
            </trkpt>
            <trkpt lon="101.403251" lat="14.199320">
                <ele>27.054321</ele>
                <time>2012-06-23T06:13:40Z</time>
            </trkpt>
            <trkpt lon="101.402781" lat="14.197787">
                <ele>27.534912</ele>
                <time>2012-06-23T06:14:13Z</time>
            </trkpt>
            <trkpt lon="101.402438" lat="14.195383">
                <ele>24.170288</ele>
                <time>2012-06-23T06:14:59Z</time>
            </trkpt>
            <trkpt lon="101.402155" lat="14.194896">
                <ele>24.170288</ele>
                <time>2012-06-23T06:15:10Z</time>
            </trkpt>
            <trkpt lon="101.401725" lat="14.194505">
                <ele>23.208984</ele>
                <time>2012-06-23T06:15:22Z</time>
            </trkpt>
            <trkpt lon="101.401122" lat="14.193062">
                <ele>23.689575</ele>
                <time>2012-06-23T06:15:55Z</time>
            </trkpt>
            <trkpt lon="101.400769" lat="14.192088">
                <ele>23.208984</ele>
                <time>2012-06-23T06:16:18Z</time>
            </trkpt>
            <trkpt lon="101.400342" lat="14.191706">
                <ele>21.286377</ele>
                <time>2012-06-23T06:16:32Z</time>
            </trkpt>
            <trkpt lon="101.399346" lat="14.191625">
                <ele>18.883057</ele>
                <time>2012-06-23T06:16:54Z</time>
            </trkpt>
            <trkpt lon="101.398432" lat="14.192034">
                <ele>20.324951</ele>
                <time>2012-06-23T06:17:18Z</time>
            </trkpt>
            <trkpt lon="101.397601" lat="14.192149">
                <ele>23.208984</ele>
                <time>2012-06-23T06:17:45Z</time>
            </trkpt>
            <trkpt lon="101.396910" lat="14.192391">
                <ele>23.689575</ele>
                <time>2012-06-23T06:18:03Z</time>
            </trkpt>
            <trkpt lon="101.396747" lat="14.192449">
                <ele>23.689575</ele>
                <time>2012-06-23T06:18:07Z</time>
            </trkpt>
            <trkpt lon="101.396542" lat="14.192295">
                <ele>23.208984</ele>
                <time>2012-06-23T06:18:14Z</time>
            </trkpt>
            <trkpt lon="101.395888" lat="14.192239">
                <ele>22.728272</ele>
                <time>2012-06-23T06:18:28Z</time>
            </trkpt>
            <trkpt lon="101.395208" lat="14.192445">
                <ele>21.286377</ele>
                <time>2012-06-23T06:18:45Z</time>
            </trkpt>
            <trkpt lon="101.395128" lat="14.192309">
                <ele>21.766968</ele>
                <time>2012-06-23T06:18:49Z</time>
            </trkpt>
            <trkpt lon="101.394887" lat="14.190538">
                <ele>19.844360</ele>
                <time>2012-06-23T06:19:33Z</time>
            </trkpt>
            <trkpt lon="101.395249" lat="14.189377">
                <ele>21.286377</ele>
                <time>2012-06-23T06:20:03Z</time>
            </trkpt>
            <trkpt lon="101.395531" lat="14.189218">
                <ele>21.286377</ele>
                <time>2012-06-23T06:20:11Z</time>
            </trkpt>
            <trkpt lon="101.395770" lat="14.188721">
                <ele>22.247559</ele>
                <time>2012-06-23T06:20:26Z</time>
            </trkpt>
            <trkpt lon="101.395569" lat="14.187373">
                <ele>27.054321</ele>
                <time>2012-06-23T06:21:13Z</time>
            </trkpt>
            <trkpt lon="101.395452" lat="14.186798">
                <ele>26.573608</ele>
                <time>2012-06-23T06:21:35Z</time>
            </trkpt>
            <trkpt lon="101.395102" lat="14.186518">
                <ele>24.170288</ele>
                <time>2012-06-23T06:21:54Z</time>
            </trkpt>
            <trkpt lon="101.395035" lat="14.186212">
                <ele>27.054321</ele>
                <time>2012-06-23T06:22:11Z</time>
            </trkpt>
            <trkpt lon="101.395220" lat="14.185996">
                <ele>28.976929</ele>
                <time>2012-06-23T06:22:27Z</time>
            </trkpt>
            <trkpt lon="101.395701" lat="14.185966">
                <ele>30.899536</ele>
                <time>2012-06-23T06:22:42Z</time>
            </trkpt>
            <trkpt lon="101.396253" lat="14.185978">
                <ele>29.938110</ele>
                <time>2012-06-23T06:22:58Z</time>
            </trkpt>
            <trkpt lon="101.396502" lat="14.186143">
                <ele>28.496216</ele>
                <time>2012-06-23T06:23:09Z</time>
            </trkpt>
            <trkpt lon="101.396715" lat="14.186600">
                <ele>30.418823</ele>
                <time>2012-06-23T06:24:01Z</time>
            </trkpt>
            <trkpt lon="101.398240" lat="14.185632">
                <ele>27.534912</ele>
                <time>2012-06-23T06:29:09Z</time>
            </trkpt>
            <trkpt lon="101.398573" lat="14.186040">
                <ele>24.170288</ele>
                <time>2012-06-23T06:30:24Z</time>
            </trkpt>
            <trkpt lon="101.398709" lat="14.185870">
                <ele>24.170288</ele>
                <time>2012-06-23T06:31:00Z</time>
            </trkpt>
            <trkpt lon="101.398995" lat="14.185961">
                <ele>20.324951</ele>
                <time>2012-06-23T06:31:38Z</time>
            </trkpt>
            <trkpt lon="101.399876" lat="14.185742">
                <ele>22.247559</ele>
                <time>2012-06-23T06:33:21Z</time>
            </trkpt>
            <trkpt lon="101.399812" lat="14.185499">
                <ele>22.728272</ele>
                <time>2012-06-23T06:33:34Z</time>
            </trkpt>
            <trkpt lon="101.400103" lat="14.185376">
                <ele>23.689575</ele>
                <time>2012-06-23T06:33:46Z</time>
            </trkpt>
            <trkpt lon="101.400994" lat="14.184784">
                <ele>23.208984</ele>
                <time>2012-06-23T06:34:17Z</time>
            </trkpt>
            <trkpt lon="101.400647" lat="14.183586">
                <ele>24.170288</ele>
                <time>2012-06-23T06:34:50Z</time>
            </trkpt>
            <trkpt lon="101.401017" lat="14.183463">
                <ele>26.092896</ele>
                <time>2012-06-23T06:35:01Z</time>
            </trkpt>
            <trkpt lon="101.401078" lat="14.182365">
                <ele>27.054321</ele>
                <time>2012-06-23T06:35:32Z</time>
            </trkpt>
            <trkpt lon="101.403390" lat="14.181591">
                <ele>27.534912</ele>
                <time>2012-06-23T06:36:21Z</time>
            </trkpt>
            <trkpt lon="101.404013" lat="14.181694">
                <ele>25.131714</ele>
                <time>2012-06-23T06:36:34Z</time>
            </trkpt>
            <trkpt lon="101.405828" lat="14.180973">
                <ele>23.689575</ele>
                <time>2012-06-23T06:37:13Z</time>
            </trkpt>
            <trkpt lon="101.405767" lat="14.180539">
                <ele>23.208984</ele>
                <time>2012-06-23T06:37:24Z</time>
            </trkpt>
            <trkpt lon="101.405256" lat="14.179849">
                <ele>23.689575</ele>
                <time>2012-06-23T06:37:43Z</time>
            </trkpt>
            <trkpt lon="101.405824" lat="14.179616">
                <ele>22.728272</ele>
                <time>2012-06-23T06:37:58Z</time>
            </trkpt>
            <trkpt lon="101.406317" lat="14.178801">
                <ele>22.247559</ele>
                <time>2012-06-23T06:38:18Z</time>
            </trkpt>
            <trkpt lon="101.407039" lat="14.178190">
                <ele>21.766968</ele>
                <time>2012-06-23T06:38:36Z</time>
            </trkpt>
            <trkpt lon="101.407376" lat="14.178088">
                <ele>21.286377</ele>
                <time>2012-06-23T06:38:43Z</time>
            </trkpt>
            <trkpt lon="101.407792" lat="14.178432">
                <ele>20.324951</ele>
                <time>2012-06-23T06:38:55Z</time>
            </trkpt>
            <trkpt lon="101.408027" lat="14.178928">
                <ele>20.805664</ele>
                <time>2012-06-23T06:39:37Z</time>
            </trkpt>
            <trkpt lon="101.408110" lat="14.178804">
                <ele>21.286377</ele>
                <time>2012-06-23T06:39:48Z</time>
            </trkpt>
            <trkpt lon="101.408590" lat="14.178779">
                <ele>20.324951</ele>
                <time>2012-06-23T06:40:04Z</time>
            </trkpt>
            <trkpt lon="101.408814" lat="14.178915">
                <ele>19.844360</ele>
                <time>2012-06-23T06:40:15Z</time>
            </trkpt>
            <trkpt lon="101.409103" lat="14.179463">
                <ele>19.844360</ele>
                <time>2012-06-23T06:40:38Z</time>
            </trkpt>
            <trkpt lon="101.408847" lat="14.178955">
                <ele>20.324951</ele>
                <time>2012-06-23T06:41:22Z</time>
            </trkpt>
            <trkpt lon="101.408607" lat="14.178795">
                <ele>19.844360</ele>
                <time>2012-06-23T06:41:29Z</time>
            </trkpt>
            <trkpt lon="101.407962" lat="14.178750">
                <ele>20.805664</ele>
                <time>2012-06-23T06:41:54Z</time>
            </trkpt>
            <trkpt lon="101.407702" lat="14.178298">
                <ele>21.286377</ele>
                <time>2012-06-23T06:42:10Z</time>
            </trkpt>
            <trkpt lon="101.407668" lat="14.178196">
                <ele>20.324951</ele>
                <time>2012-06-23T06:42:17Z</time>
            </trkpt>
            <trkpt lon="101.409054" lat="14.176501">
                <ele>19.844360</ele>
                <time>2012-06-23T06:43:07Z</time>
            </trkpt>
            <trkpt lon="101.409111" lat="14.176260">
                <ele>19.363770</ele>
                <time>2012-06-23T06:43:12Z</time>
            </trkpt>
            <trkpt lon="101.409537" lat="14.175887">
                <ele>18.883057</ele>
                <time>2012-06-23T06:43:23Z</time>
            </trkpt>
            <trkpt lon="101.410585" lat="14.175456">
                <ele>18.883057</ele>
                <time>2012-06-23T06:43:43Z</time>
            </trkpt>
            <trkpt lon="101.410847" lat="14.175434">
                <ele>19.363770</ele>
                <time>2012-06-23T06:43:48Z</time>
            </trkpt>
            <trkpt lon="101.411411" lat="14.175975">
                <ele>20.805664</ele>
                <time>2012-06-23T06:44:11Z</time>
            </trkpt>
            <trkpt lon="101.411497" lat="14.175910">
                <ele>21.286377</ele>
                <time>2012-06-23T06:44:15Z</time>
            </trkpt>
            <trkpt lon="101.413502" lat="14.173826">
                <ele>22.728272</ele>
                <time>2012-06-23T06:45:09Z</time>
            </trkpt>
            <trkpt lon="101.414406" lat="14.173254">
                <ele>21.766968</ele>
                <time>2012-06-23T06:45:27Z</time>
            </trkpt>
            <trkpt lon="101.416626" lat="14.172169">
                <ele>19.363770</ele>
                <time>2012-06-23T06:46:07Z</time>
            </trkpt>
            <trkpt lon="101.417437" lat="14.171464">
                <ele>20.324951</ele>
                <time>2012-06-23T06:46:24Z</time>
            </trkpt>
            <trkpt lon="101.417811" lat="14.170425">
                <ele>19.844360</ele>
                <time>2012-06-23T06:46:42Z</time>
            </trkpt>
            <trkpt lon="101.418351" lat="14.166361">
                <ele>21.286377</ele>
                <time>2012-06-23T06:47:54Z</time>
            </trkpt>
            <trkpt lon="101.418492" lat="14.164045">
                <ele>24.170288</ele>
                <time>2012-06-23T06:48:42Z</time>
            </trkpt>
            <trkpt lon="101.418480" lat="14.163048">
                <ele>24.170288</ele>
                <time>2012-06-23T06:49:02Z</time>
            </trkpt>
            <trkpt lon="101.417317" lat="14.161360">
                <ele>32.341553</ele>
                <time>2012-06-23T06:50:14Z</time>
            </trkpt>
            <trkpt lon="101.415050" lat="14.159115">
                <ele>43.396606</ele>
                <time>2012-06-23T06:52:40Z</time>
            </trkpt>
            <trkpt lon="101.414487" lat="14.158827">
                <ele>54.451782</ele>
                <time>2012-06-23T06:54:18Z</time>
            </trkpt>
            <trkpt lon="101.412332" lat="14.157992">
                <ele>57.335815</ele>
                <time>2012-06-23T06:55:53Z</time>
            </trkpt>
            <trkpt lon="101.412043" lat="14.157759">
                <ele>61.181030</ele>
                <time>2012-06-23T06:56:12Z</time>
            </trkpt>
            <trkpt lon="101.411663" lat="14.157586">
                <ele>59.258423</ele>
                <time>2012-06-23T06:56:30Z</time>
            </trkpt>
            <trkpt lon="101.411406" lat="14.157051">
                <ele>60.219727</ele>
                <time>2012-06-23T06:56:50Z</time>
            </trkpt>
            <trkpt lon="101.410874" lat="14.156761">
                <ele>63.103638</ele>
                <time>2012-06-23T06:57:12Z</time>
            </trkpt>
            <trkpt lon="101.410123" lat="14.156377">
                <ele>64.065063</ele>
                <time>2012-06-23T06:57:34Z</time>
            </trkpt>
            <trkpt lon="101.409193" lat="14.155546">
                <ele>63.103638</ele>
                <time>2012-06-23T06:58:01Z</time>
            </trkpt>
            <trkpt lon="101.408754" lat="14.155324">
                <ele>59.258423</ele>
                <time>2012-06-23T06:58:14Z</time>
            </trkpt>
            <trkpt lon="101.404955" lat="14.154141">
                <ele>54.932373</ele>
                <time>2012-06-23T06:59:36Z</time>
            </trkpt>
            <trkpt lon="101.404252" lat="14.153849">
                <ele>51.567871</ele>
                <time>2012-06-23T06:59:54Z</time>
            </trkpt>
            <trkpt lon="101.404211" lat="14.153577">
                <ele>53.009766</ele>
                <time>2012-06-23T07:00:05Z</time>
            </trkpt>
            <trkpt lon="101.405799" lat="14.149364">
                <ele>53.490479</ele>
                <time>2012-06-23T07:01:50Z</time>
            </trkpt>
            <trkpt lon="101.406523" lat="14.147392">
                <ele>50.125977</ele>
                <time>2012-06-23T07:02:30Z</time>
            </trkpt>
            <trkpt lon="101.406429" lat="14.147201">
                <ele>50.125977</ele>
                <time>2012-06-23T07:02:36Z</time>
            </trkpt>
            <trkpt lon="101.405182" lat="14.147335">
                <ele>66.948975</ele>
                <time>2012-06-23T07:06:08Z</time>
            </trkpt>
            <trkpt lon="101.404121" lat="14.147554">
                <ele>60.700317</ele>
                <time>2012-06-23T07:07:36Z</time>
            </trkpt>
            <trkpt lon="101.402250" lat="14.146922">
                <ele>57.335815</ele>
                <time>2012-06-23T07:08:23Z</time>
            </trkpt>
            <trkpt lon="101.402036" lat="14.146258">
                <ele>60.219727</ele>
                <time>2012-06-23T07:08:51Z</time>
            </trkpt>
            <trkpt lon="101.401411" lat="14.146164">
                <ele>65.026367</ele>
                <time>2012-06-23T07:09:15Z</time>
            </trkpt>
            <trkpt lon="101.401319" lat="14.146045">
                <ele>65.507080</ele>
                <time>2012-06-23T07:09:28Z</time>
            </trkpt>
            <trkpt lon="101.401298" lat="14.145736">
                <ele>61.661743</ele>
                <time>2012-06-23T07:10:02Z</time>
            </trkpt>
            <trkpt lon="101.401023" lat="14.145581">
                <ele>63.584351</ele>
                <time>2012-06-23T07:10:22Z</time>
            </trkpt>
            <trkpt lon="101.399447" lat="14.145437">
                <ele>71.755493</ele>
                <time>2012-06-23T07:11:33Z</time>
            </trkpt>
            <trkpt lon="101.399130" lat="14.145378">
                <ele>70.313477</ele>
                <time>2012-06-23T07:11:52Z</time>
            </trkpt>
            <trkpt lon="101.398825" lat="14.145633">
                <ele>74.639526</ele>
                <time>2012-06-23T07:12:26Z</time>
            </trkpt>
            <trkpt lon="101.398713" lat="14.146065">
                <ele>75.600830</ele>
                <time>2012-06-23T07:12:53Z</time>
            </trkpt>
            <trkpt lon="101.397843" lat="14.145904">
                <ele>76.562134</ele>
                <time>2012-06-23T07:13:28Z</time>
            </trkpt>
            <trkpt lon="101.397279" lat="14.146051">
                <ele>76.562134</ele>
                <time>2012-06-23T07:13:45Z</time>
            </trkpt>
            <trkpt lon="101.396961" lat="14.146522">
                <ele>77.523438</ele>
                <time>2012-06-23T07:14:02Z</time>
            </trkpt>
            <trkpt lon="101.396947" lat="14.146707">
                <ele>76.562134</ele>
                <time>2012-06-23T07:14:08Z</time>
            </trkpt>
            <trkpt lon="101.396111" lat="14.146765">
                <ele>75.600830</ele>
                <time>2012-06-23T07:14:40Z</time>
            </trkpt>
            <trkpt lon="101.396109" lat="14.146639">
                <ele>80.888184</ele>
                <time>2012-06-23T07:15:05Z</time>
            </trkpt>
            <trkpt lon="101.396012" lat="14.146290">
                <ele>86.175293</ele>
                <time>2012-06-23T07:15:38Z</time>
            </trkpt>
            <trkpt lon="101.395864" lat="14.145985">
                <ele>83.291382</ele>
                <time>2012-06-23T07:15:57Z</time>
            </trkpt>
            <trkpt lon="101.395830" lat="14.145720">
                <ele>82.330078</ele>
                <time>2012-06-23T07:16:15Z</time>
            </trkpt>
            <trkpt lon="101.395754" lat="14.145606">
                <ele>86.656006</ele>
                <time>2012-06-23T07:16:29Z</time>
            </trkpt>
            <trkpt lon="101.395670" lat="14.145516">
                <ele>87.617188</ele>
                <time>2012-06-23T07:16:37Z</time>
            </trkpt>
            <trkpt lon="101.395139" lat="14.145271">
                <ele>88.578735</ele>
                <time>2012-06-23T07:17:23Z</time>
            </trkpt>
            <trkpt lon="101.394512" lat="14.145236">
                <ele>90.981934</ele>
                <time>2012-06-23T07:17:57Z</time>
            </trkpt>
            <trkpt lon="101.392200" lat="14.145836">
                <ele>95.307739</ele>
                <time>2012-06-23T07:21:30Z</time>
            </trkpt>
            <trkpt lon="101.391258" lat="14.145741">
                <ele>98.672485</ele>
                <time>2012-06-23T07:22:38Z</time>
            </trkpt>
            <trkpt lon="101.390863" lat="14.145416">
                <ele>98.191895</ele>
                <time>2012-06-23T07:23:23Z</time>
            </trkpt>
            <trkpt lon="101.390741" lat="14.145707">
                <ele>103.479004</ele>
                <time>2012-06-23T07:24:12Z</time>
            </trkpt>
            <trkpt lon="101.390318" lat="14.145635">
                <ele>103.479004</ele>
                <time>2012-06-23T07:25:04Z</time>
            </trkpt>
            <trkpt lon="101.389880" lat="14.145802">
                <ele>106.363037</ele>
                <time>2012-06-23T07:26:01Z</time>
            </trkpt>
            <trkpt lon="101.389005" lat="14.145573">
                <ele>103.959717</ele>
                <time>2012-06-23T07:27:33Z</time>
            </trkpt>
            <trkpt lon="101.388337" lat="14.145692">
                <ele>106.843628</ele>
                <time>2012-06-23T07:28:19Z</time>
            </trkpt>
            <trkpt lon="101.387863" lat="14.145616">
                <ele>107.805054</ele>
                <time>2012-06-23T07:28:51Z</time>
            </trkpt>
            <trkpt lon="101.387522" lat="14.145774">
                <ele>109.727661</ele>
                <time>2012-06-23T07:29:16Z</time>
            </trkpt>
            <trkpt lon="101.385228" lat="14.145838">
                <ele>115.976196</ele>
                <time>2012-06-23T07:31:28Z</time>
            </trkpt>
            <trkpt lon="101.384950" lat="14.145959">
                <ele>114.053589</ele>
                <time>2012-06-23T07:31:44Z</time>
            </trkpt>
            <trkpt lon="101.384488" lat="14.145834">
                <ele>118.379395</ele>
                <time>2012-06-23T07:32:25Z</time>
            </trkpt>
            <trkpt lon="101.384374" lat="14.146035">
                <ele>118.860107</ele>
                <time>2012-06-23T07:32:43Z</time>
            </trkpt>
            <trkpt lon="101.383702" lat="14.146341">
                <ele>119.821411</ele>
                <time>2012-06-23T07:33:18Z</time>
            </trkpt>
            <trkpt lon="101.382759" lat="14.146042">
                <ele>120.302124</ele>
                <time>2012-06-23T07:34:10Z</time>
            </trkpt>
            <trkpt lon="101.381764" lat="14.146210">
                <ele>122.224731</ele>
                <time>2012-06-23T07:35:26Z</time>
            </trkpt>
            <trkpt lon="101.379705" lat="14.146676">
                <ele>124.628052</ele>
                <time>2012-06-23T07:36:46Z</time>
            </trkpt>
            <trkpt lon="101.379020" lat="14.146788">
                <ele>122.224731</ele>
                <time>2012-06-23T07:37:12Z</time>
            </trkpt>
            <trkpt lon="101.378697" lat="14.146965">
                <ele>120.782837</ele>
                <time>2012-06-23T07:37:26Z</time>
            </trkpt>
            <trkpt lon="101.378533" lat="14.147210">
                <ele>119.340820</ele>
                <time>2012-06-23T07:37:37Z</time>
            </trkpt>
            <trkpt lon="101.378706" lat="14.147470">
                <ele>118.379395</ele>
                <time>2012-06-23T07:37:51Z</time>
            </trkpt>
            <trkpt lon="101.379494" lat="14.147543">
                <ele>128.954102</ele>
                <time>2012-06-23T07:38:46Z</time>
            </trkpt>
            <trkpt lon="101.379754" lat="14.147571">
                <ele>128.473389</ele>
                <time>2012-06-23T07:39:09Z</time>
            </trkpt>
            <trkpt lon="101.379980" lat="14.147804">
                <ele>130.395996</ele>
                <time>2012-06-23T07:39:30Z</time>
            </trkpt>
            <trkpt lon="101.379959" lat="14.148183">
                <ele>131.837891</ele>
                <time>2012-06-23T07:39:51Z</time>
            </trkpt>
            <trkpt lon="101.379660" lat="14.150308">
                <ele>134.241211</ele>
                <time>2012-06-23T07:41:04Z</time>
            </trkpt>
            <trkpt lon="101.380072" lat="14.151497">
                <ele>141.451050</ele>
                <time>2012-06-23T07:41:44Z</time>
            </trkpt>
            <trkpt lon="101.380460" lat="14.152685">
                <ele>140.970459</ele>
                <time>2012-06-23T07:42:23Z</time>
            </trkpt>
            <trkpt lon="101.380453" lat="14.153288">
                <ele>136.644653</ele>
                <time>2012-06-23T07:42:45Z</time>
            </trkpt>
            <trkpt lon="101.380803" lat="14.153407">
                <ele>134.721924</ele>
                <time>2012-06-23T07:43:05Z</time>
            </trkpt>
            <trkpt lon="101.381731" lat="14.153370">
                <ele>136.163940</ele>
                <time>2012-06-23T07:43:40Z</time>
            </trkpt>
            <trkpt lon="101.382800" lat="14.153226">
                <ele>132.318603</ele>
                <time>2012-06-23T07:44:43Z</time>
            </trkpt>
            <trkpt lon="101.382532" lat="14.153323">
                <ele>127.031372</ele>
                <time>2012-06-23T07:45:17Z</time>
            </trkpt>
            <trkpt lon="101.382924" lat="14.154541">
                <ele>127.031372</ele>
                <time>2012-06-23T07:45:54Z</time>
            </trkpt>
            <trkpt lon="101.383449" lat="14.155902">
                <ele>123.186157</ele>
                <time>2012-06-23T07:46:18Z</time>
            </trkpt>
            <trkpt lon="101.383502" lat="14.157095">
                <ele>122.224731</ele>
                <time>2012-06-23T07:46:43Z</time>
            </trkpt>
            <trkpt lon="101.382250" lat="14.159686">
                <ele>124.147339</ele>
                <time>2012-06-23T07:48:04Z</time>
            </trkpt>
            <trkpt lon="101.382177" lat="14.160164">
                <ele>131.357300</ele>
                <time>2012-06-23T07:48:23Z</time>
            </trkpt>
            <trkpt lon="101.382621" lat="14.160236">
                <ele>131.837891</ele>
                <time>2012-06-23T07:48:37Z</time>
            </trkpt>
            <trkpt lon="101.383393" lat="14.159964">
                <ele>131.357300</ele>
                <time>2012-06-23T07:48:57Z</time>
            </trkpt>
            <trkpt lon="101.384475" lat="14.159515">
                <ele>128.473389</ele>
                <time>2012-06-23T07:49:17Z</time>
            </trkpt>
            <trkpt lon="101.385120" lat="14.159904">
                <ele>124.147339</ele>
                <time>2012-06-23T07:49:26Z</time>
            </trkpt>
            <trkpt lon="101.386662" lat="14.160039">
                <ele>121.263550</ele>
                <time>2012-06-23T07:49:42Z</time>
            </trkpt>
            <trkpt lon="101.388919" lat="14.160535">
                <ele>111.169556</ele>
                <time>2012-06-23T07:50:07Z</time>
            </trkpt>
            <trkpt lon="101.389668" lat="14.160899">
                <ele>107.805054</ele>
                <time>2012-06-23T07:50:20Z</time>
            </trkpt>
            <trkpt lon="101.389642" lat="14.161207">
                <ele>109.727661</ele>
                <time>2012-06-23T07:50:29Z</time>
            </trkpt>
            <trkpt lon="101.389585" lat="14.161652">
                <ele>108.766235</ele>
                <time>2012-06-23T07:50:50Z</time>
            </trkpt>
            <trkpt lon="101.390222" lat="14.162236">
                <ele>112.130981</ele>
                <time>2012-06-23T07:51:22Z</time>
            </trkpt>
            <trkpt lon="101.390173" lat="14.163569">
                <ele>120.782837</ele>
                <time>2012-06-23T07:52:19Z</time>
            </trkpt>
            <trkpt lon="101.389655" lat="14.164979">
                <ele>127.992554</ele>
                <time>2012-06-23T07:53:45Z</time>
            </trkpt>
            <trkpt lon="101.389097" lat="14.165969">
                <ele>183.750000</ele>
                <time>2012-06-23T07:44:28Z</time>
            </trkpt>
            <trkpt lon="101.388956" lat="14.168206">
                <ele>202.490000</ele>
                <time>2012-06-23T07:46:33Z</time>
            </trkpt>
            <trkpt lon="101.388568" lat="14.169206">
                <ele>209.700000</ele>
                <time>2012-06-23T07:47:28Z</time>
            </trkpt>
            <trkpt lon="101.387859" lat="14.171189">
                <ele>220.760000</ele>
                <time>2012-06-23T07:48:55Z</time>
            </trkpt>
            <trkpt lon="101.387843" lat="14.172390">
                <ele>234.220000</ele>
                <time>2012-06-23T07:50:09Z</time>
            </trkpt>
            <trkpt lon="101.387469" lat="14.172886">
                <ele>241.910000</ele>
                <time>2012-06-23T07:50:50Z</time>
            </trkpt>
            <trkpt lon="101.387361" lat="14.173374">
                <ele>248.160000</ele>
                <time>2012-06-23T07:51:22Z</time>
            </trkpt>
            <trkpt lon="101.387459" lat="14.173785">
                <ele>252.000000</ele>
                <time>2012-06-23T07:51:46Z</time>
            </trkpt>
            <trkpt lon="101.387910" lat="14.174376">
                <ele>256.810000</ele>
                <time>2012-06-23T07:52:23Z</time>
            </trkpt>
            <trkpt lon="101.388560" lat="14.175068">
                <ele>260.170000</ele>
                <time>2012-06-23T07:53:04Z</time>
            </trkpt>
            <trkpt lon="101.388726" lat="14.175250">
                <ele>256.330000</ele>
                <time>2012-06-23T07:53:16Z</time>
            </trkpt>
            <trkpt lon="101.389017" lat="14.175613">
                <ele>261.140000</ele>
                <time>2012-06-23T07:53:42Z</time>
            </trkpt>
            <trkpt lon="101.389027" lat="14.175628">
                <ele>259.690000</ele>
                <time>2012-06-23T07:53:43Z</time>
            </trkpt>
            <trkpt lon="101.389188" lat="14.176038">
                <ele>271.230000</ele>
                <time>2012-06-23T07:54:11Z</time>
            </trkpt>
            <trkpt lon="101.389275" lat="14.176509">
                <ele>277.960000</ele>
                <time>2012-06-23T07:54:44Z</time>
            </trkpt>
            <trkpt lon="101.389265" lat="14.176976">
                <ele>283.250000</ele>
                <time>2012-06-23T07:55:17Z</time>
            </trkpt>
            <trkpt lon="101.388357" lat="14.180403">
                <ele>326.020000</ele>
                <time>2012-06-23T07:59:15Z</time>
            </trkpt>
            <trkpt lon="101.388009" lat="14.180723">
                <ele>333.230000</ele>
                <time>2012-06-23T07:59:49Z</time>
            </trkpt>
            <trkpt lon="101.387998" lat="14.180732">
                <ele>326.990000</ele>
                <time>2012-06-23T07:59:50Z</time>
            </trkpt>
            <trkpt lon="101.387606" lat="14.180924">
                <ele>339.000000</ele>
                <time>2012-06-23T08:00:19Z</time>
            </trkpt>
            <trkpt lon="101.386470" lat="14.181601">
                <ele>357.270000</ele>
                <time>2012-06-23T08:01:55Z</time>
            </trkpt>
            <trkpt lon="101.386369" lat="14.181649">
                <ele>357.750000</ele>
                <time>2012-06-23T08:02:02Z</time>
            </trkpt>
            <trkpt lon="101.386206" lat="14.181316">
                <ele>351.020000</ele>
                <time>2012-06-23T08:02:53Z</time>
            </trkpt>
            <trkpt lon="101.386288" lat="14.180847">
                <ele>345.250000</ele>
                <time>2012-06-23T08:04:01Z</time>
            </trkpt>
            <trkpt lon="101.386257" lat="14.181597">
                <ele>357.750000</ele>
                <time>2012-06-23T08:05:38Z</time>
            </trkpt>
            <trkpt lon="101.386004" lat="14.181755">
                <ele>359.670000</ele>
                <time>2012-06-23T08:06:16Z</time>
            </trkpt>
            <trkpt lon="101.385953" lat="14.181902">
                <ele>360.630000</ele>
                <time>2012-06-23T08:06:28Z</time>
            </trkpt>
            <trkpt lon="101.386143" lat="14.182280">
                <ele>366.400000</ele>
                <time>2012-06-23T08:06:58Z</time>
            </trkpt>
            <trkpt lon="101.386365" lat="14.182535">
                <ele>365.440000</ele>
                <time>2012-06-23T08:07:15Z</time>
            </trkpt>
            <trkpt lon="101.386477" lat="14.182574">
                <ele>364.960000</ele>
                <time>2012-06-23T08:07:20Z</time>
            </trkpt>
            <trkpt lon="101.386619" lat="14.182352">
                <ele>366.880000</ele>
                <time>2012-06-23T08:07:35Z</time>
            </trkpt>
            <trkpt lon="101.386658" lat="14.182262">
                <ele>366.880000</ele>
                <time>2012-06-23T08:07:40Z</time>
            </trkpt>
            <trkpt lon="101.386487" lat="14.182163">
                <ele>369.280000</ele>
                <time>2012-06-23T08:07:55Z</time>
            </trkpt>
            <trkpt lon="101.386644" lat="14.182030">
                <ele>368.320000</ele>
                <time>2012-06-23T08:08:13Z</time>
            </trkpt>
            <trkpt lon="101.386866" lat="14.181906">
                <ele>362.550000</ele>
                <time>2012-06-23T08:09:44Z</time>
            </trkpt>
            <trkpt lon="101.388558" lat="14.181478">
                <ele>347.650000</ele>
                <time>2012-06-23T08:10:49Z</time>
            </trkpt>
            <trkpt lon="101.388856" lat="14.181331">
                <ele>344.290000</ele>
                <time>2012-06-23T08:10:59Z</time>
            </trkpt>
            <trkpt lon="101.389978" lat="14.181215">
                <ele>339.000000</ele>
                <time>2012-06-23T08:11:37Z</time>
            </trkpt>
            <trkpt lon="101.390971" lat="14.180670">
                <ele>333.710000</ele>
                <time>2012-06-23T08:12:18Z</time>
            </trkpt>
            <trkpt lon="101.391846" lat="14.180337">
                <ele>323.620000</ele>
                <time>2012-06-23T08:13:03Z</time>
            </trkpt>
            <trkpt lon="101.392501" lat="14.179535">
                <ele>308.720000</ele>
                <time>2012-06-23T08:13:52Z</time>
            </trkpt>
            <trkpt lon="101.393154" lat="14.178151">
                <ele>286.130000</ele>
                <time>2012-06-23T08:15:06Z</time>
            </trkpt>
            <trkpt lon="101.393785" lat="14.177704">
                <ele>281.800000</ele>
                <time>2012-06-23T08:15:29Z</time>
            </trkpt>
            <trkpt lon="101.393579" lat="14.176312">
                <ele>268.830000</ele>
                <time>2012-06-23T08:16:16Z</time>
            </trkpt>
            <trkpt lon="101.393260" lat="14.175819">
                <ele>261.140000</ele>
                <time>2012-06-23T08:17:06Z</time>
            </trkpt>
            <trkpt lon="101.393295" lat="14.174891">
                <ele>253.930000</ele>
                <time>2012-06-23T08:17:40Z</time>
            </trkpt>
            <trkpt lon="101.393331" lat="14.174252">
                <ele>244.790000</ele>
                <time>2012-06-23T08:17:59Z</time>
            </trkpt>
            <trkpt lon="101.393044" lat="14.173903">
                <ele>242.870000</ele>
                <time>2012-06-23T08:18:19Z</time>
            </trkpt>
            <trkpt lon="101.392793" lat="14.173859">
                <ele>242.870000</ele>
                <time>2012-06-23T08:18:39Z</time>
            </trkpt>
            <trkpt lon="101.392770" lat="14.173823">
                <ele>241.910000</ele>
                <time>2012-06-23T08:18:42Z</time>
            </trkpt>
            <trkpt lon="101.392779" lat="14.172801">
                <ele>229.890000</ele>
                <time>2012-06-23T08:19:27Z</time>
            </trkpt>
            <trkpt lon="101.393087" lat="14.172061">
                <ele>228.450000</ele>
                <time>2012-06-23T08:19:59Z</time>
            </trkpt>
            <trkpt lon="101.393217" lat="14.171716">
                <ele>223.640000</ele>
                <time>2012-06-23T08:20:25Z</time>
            </trkpt>
            <trkpt lon="101.393261" lat="14.171040">
                <ele>222.200000</ele>
                <time>2012-06-23T08:21:01Z</time>
            </trkpt>
            <trkpt lon="101.393359" lat="14.170962">
                <ele>221.720000</ele>
                <time>2012-06-23T08:21:07Z</time>
            </trkpt>
            <trkpt lon="101.393381" lat="14.170279">
                <ele>214.030000</ele>
                <time>2012-06-23T08:21:33Z</time>
            </trkpt>
            <trkpt lon="101.393586" lat="14.169854">
                <ele>211.150000</ele>
                <time>2012-06-23T08:21:49Z</time>
            </trkpt>
            <trkpt lon="101.393815" lat="14.169395">
                <ele>206.340000</ele>
                <time>2012-06-23T08:22:02Z</time>
            </trkpt>
            <trkpt lon="101.394151" lat="14.168549">
                <ele>196.250000</ele>
                <time>2012-06-23T08:22:30Z</time>
            </trkpt>
            <trkpt lon="101.394077" lat="14.168461">
                <ele>152.506348</ele>
                <time>2012-06-23T08:06:42Z</time>
            </trkpt>
            <trkpt lon="101.394441" lat="14.167683">
                <ele>153.948364</ele>
                <time>2012-06-23T08:07:27Z</time>
            </trkpt>
            <trkpt lon="101.394612" lat="14.167323">
                <ele>148.661011</ele>
                <time>2012-06-23T08:07:44Z</time>
            </trkpt>
            <trkpt lon="101.394794" lat="14.167084">
                <ele>144.815796</ele>
                <time>2012-06-23T08:08:02Z</time>
            </trkpt>
            <trkpt lon="101.394863" lat="14.167006">
                <ele>140.970459</ele>
                <time>2012-06-23T08:08:26Z</time>
            </trkpt>
            <trkpt lon="101.394860" lat="14.166208">
                <ele>134.241211</ele>
                <time>2012-06-23T08:09:21Z</time>
            </trkpt>
            <trkpt lon="101.395693" lat="14.164032">
                <ele>114.053589</ele>
                <time>2012-06-23T08:10:50Z</time>
            </trkpt>
            <trkpt lon="101.396772" lat="14.161176">
                <ele>86.175293</ele>
                <time>2012-06-23T08:13:06Z</time>
            </trkpt>
            <trkpt lon="101.397291" lat="14.159945">
                <ele>77.523438</ele>
                <time>2012-06-23T08:13:52Z</time>
            </trkpt>
            <trkpt lon="101.397757" lat="14.159588">
                <ele>78.004028</ele>
                <time>2012-06-23T08:14:13Z</time>
            </trkpt>
            <trkpt lon="101.398062" lat="14.159620">
                <ele>77.042847</ele>
                <time>2012-06-23T08:14:32Z</time>
            </trkpt>
            <trkpt lon="101.398331" lat="14.159918">
                <ele>80.407471</ele>
                <time>2012-06-23T08:14:52Z</time>
            </trkpt>
            <trkpt lon="101.398982" lat="14.160925">
                <ele>83.291382</ele>
                <time>2012-06-23T08:15:40Z</time>
            </trkpt>
            <trkpt lon="101.399171" lat="14.160735">
                <ele>83.291382</ele>
                <time>2012-06-23T08:15:47Z</time>
            </trkpt>
            <trkpt lon="101.399441" lat="14.160255">
                <ele>79.446045</ele>
                <time>2012-06-23T08:16:04Z</time>
            </trkpt>
            <trkpt lon="101.399768" lat="14.160008">
                <ele>76.562134</ele>
                <time>2012-06-23T08:16:16Z</time>
            </trkpt>
            <trkpt lon="101.401236" lat="14.159418">
                <ele>76.562134</ele>
                <time>2012-06-23T08:17:24Z</time>
            </trkpt>
            <trkpt lon="101.401321" lat="14.159001">
                <ele>76.081421</ele>
                <time>2012-06-23T08:17:41Z</time>
            </trkpt>
            <trkpt lon="101.401557" lat="14.158499">
                <ele>74.639526</ele>
                <time>2012-06-23T08:17:58Z</time>
            </trkpt>
            <trkpt lon="101.401949" lat="14.158105">
                <ele>69.352295</ele>
                <time>2012-06-23T08:18:18Z</time>
            </trkpt>
            <trkpt lon="101.402837" lat="14.157893">
                <ele>65.987671</ele>
                <time>2012-06-23T08:18:50Z</time>
            </trkpt>
            <trkpt lon="101.403446" lat="14.157403">
                <ele>66.948975</ele>
                <time>2012-06-23T08:19:25Z</time>
            </trkpt>
            <trkpt lon="101.403310" lat="14.156836">
                <ele>66.948975</ele>
                <time>2012-06-23T08:19:43Z</time>
            </trkpt>
            <trkpt lon="101.403509" lat="14.155829">
                <ele>65.507080</ele>
                <time>2012-06-23T08:20:13Z</time>
            </trkpt>
            <trkpt lon="101.403585" lat="14.155382">
                <ele>62.622925</ele>
                <time>2012-06-23T08:20:28Z</time>
            </trkpt>
            <trkpt lon="101.404202" lat="14.153597">
                <ele>57.335815</ele>
                <time>2012-06-23T08:21:29Z</time>
            </trkpt>
            <trkpt lon="101.403967" lat="14.153428">
                <ele>67.429688</ele>
                <time>2012-06-23T08:35:56Z</time>
            </trkpt>
            <trkpt lon="101.404164" lat="14.153588">
                <ele>64.065063</ele>
                <time>2012-06-23T08:36:09Z</time>
            </trkpt>
            <trkpt lon="101.404193" lat="14.153826">
                <ele>63.584351</ele>
                <time>2012-06-23T08:36:17Z</time>
            </trkpt>
            <trkpt lon="101.404469" lat="14.153971">
                <ele>61.181030</ele>
                <time>2012-06-23T08:36:24Z</time>
            </trkpt>
            <trkpt lon="101.409220" lat="14.155288">
                <ele>58.297119</ele>
                <time>2012-06-23T08:38:08Z</time>
            </trkpt>
            <trkpt lon="101.409545" lat="14.155637">
                <ele>59.739136</ele>
                <time>2012-06-23T08:38:25Z</time>
            </trkpt>
            <trkpt lon="101.410009" lat="14.155815">
                <ele>61.181030</ele>
                <time>2012-06-23T08:38:41Z</time>
            </trkpt>
            <trkpt lon="101.410775" lat="14.155653">
                <ele>63.103638</ele>
                <time>2012-06-23T08:38:59Z</time>
            </trkpt>
            <trkpt lon="101.412509" lat="14.155284">
                <ele>59.739136</ele>
                <time>2012-06-23T08:39:36Z</time>
            </trkpt>
            <trkpt lon="101.417995" lat="14.152868">
                <ele>51.087158</ele>
                <time>2012-06-23T08:41:47Z</time>
            </trkpt>
            <trkpt lon="101.420813" lat="14.152183">
                <ele>46.280640</ele>
                <time>2012-06-23T08:42:57Z</time>
            </trkpt>
            <trkpt lon="101.421349" lat="14.152106">
                <ele>40.032105</ele>
                <time>2012-06-23T08:43:14Z</time>
            </trkpt>
            <trkpt lon="101.422684" lat="14.152803">
                <ele>36.667481</ele>
                <time>2012-06-23T08:43:58Z</time>
            </trkpt>
            <trkpt lon="101.423510" lat="14.152956">
                <ele>35.225464</ele>
                <time>2012-06-23T08:44:27Z</time>
            </trkpt>
            <trkpt lon="101.424436" lat="14.153172">
                <ele>31.380127</ele>
                <time>2012-06-23T08:44:54Z</time>
            </trkpt>
            <trkpt lon="101.425101" lat="14.153029">
                <ele>28.015503</ele>
                <time>2012-06-23T08:45:17Z</time>
            </trkpt>
            <trkpt lon="101.425839" lat="14.153729">
                <ele>26.092896</ele>
                <time>2012-06-23T08:45:42Z</time>
            </trkpt>
            <trkpt lon="101.426039" lat="14.153432">
                <ele>25.131714</ele>
                <time>2012-06-23T08:45:54Z</time>
            </trkpt>
            <trkpt lon="101.426092" lat="14.152961">
                <ele>25.612305</ele>
                <time>2012-06-23T08:46:11Z</time>
            </trkpt>
            <trkpt lon="101.426532" lat="14.153118">
                <ele>24.170288</ele>
                <time>2012-06-23T08:46:25Z</time>
            </trkpt>
            <trkpt lon="101.426836" lat="14.153022">
                <ele>24.170288</ele>
                <time>2012-06-23T08:46:32Z</time>
            </trkpt>
            <trkpt lon="101.427546" lat="14.153134">
                <ele>22.728272</ele>
                <time>2012-06-23T08:46:48Z</time>
            </trkpt>
            <trkpt lon="101.429169" lat="14.153994">
                <ele>17.921753</ele>
                <time>2012-06-23T08:47:43Z</time>
            </trkpt>
            <trkpt lon="101.430168" lat="14.153212">
                <ele>17.921753</ele>
                <time>2012-06-23T08:48:21Z</time>
            </trkpt>
            <trkpt lon="101.430112" lat="14.152847">
                <ele>17.921753</ele>
                <time>2012-06-23T08:48:34Z</time>
            </trkpt>
            <trkpt lon="101.429780" lat="14.152461">
                <ele>18.402344</ele>
                <time>2012-06-23T08:48:59Z</time>
            </trkpt>
            <trkpt lon="101.429999" lat="14.152193">
                <ele>18.883057</ele>
                <time>2012-06-23T08:49:16Z</time>
            </trkpt>
            <trkpt lon="101.430095" lat="14.152136">
                <ele>18.883057</ele>
                <time>2012-06-23T08:49:22Z</time>
            </trkpt>
            <trkpt lon="101.430309" lat="14.152213">
                <ele>18.402344</ele>
                <time>2012-06-23T08:49:52Z</time>
            </trkpt>
            <trkpt lon="101.430673" lat="14.152897">
                <ele>19.363770</ele>
                <time>2012-06-23T08:50:12Z</time>
            </trkpt>
            <trkpt lon="101.431352" lat="14.153063">
                <ele>19.844360</ele>
                <time>2012-06-23T08:50:25Z</time>
            </trkpt>
            <trkpt lon="101.431491" lat="14.153187">
                <ele>19.844360</ele>
                <time>2012-06-23T08:50:29Z</time>
            </trkpt>
            <trkpt lon="101.432093" lat="14.154244">
                <ele>18.883057</ele>
                <time>2012-06-23T08:50:53Z</time>
            </trkpt>
            <trkpt lon="101.432574" lat="14.154382">
                <ele>18.883057</ele>
                <time>2012-06-23T08:51:03Z</time>
            </trkpt>
            <trkpt lon="101.432730" lat="14.154550">
                <ele>17.921753</ele>
                <time>2012-06-23T08:51:08Z</time>
            </trkpt>
            <trkpt lon="101.432616" lat="14.156830">
                <ele>19.363770</ele>
                <time>2012-06-23T08:51:56Z</time>
            </trkpt>
            <trkpt lon="101.432818" lat="14.157510">
                <ele>20.324951</ele>
                <time>2012-06-23T08:52:12Z</time>
            </trkpt>
            <trkpt lon="101.433094" lat="14.157365">
                <ele>18.883057</ele>
                <time>2012-06-23T08:52:28Z</time>
            </trkpt>
            <trkpt lon="101.434166" lat="14.157309">
                <ele>17.921753</ele>
                <time>2012-06-23T08:53:04Z</time>
            </trkpt>
            <trkpt lon="101.436133" lat="14.157455">
                <ele>17.921753</ele>
                <time>2012-06-23T08:53:45Z</time>
            </trkpt>
            <trkpt lon="101.436250" lat="14.157588">
                <ele>18.883057</ele>
                <time>2012-06-23T08:53:50Z</time>
            </trkpt>
            <trkpt lon="101.436380" lat="14.160141">
                <ele>18.883057</ele>
                <time>2012-06-23T08:54:52Z</time>
            </trkpt>
            <trkpt lon="101.435354" lat="14.160280">
                <ele>18.883057</ele>
                <time>2012-06-23T08:55:39Z</time>
            </trkpt>
            <trkpt lon="101.435186" lat="14.160531">
                <ele>18.883057</ele>
                <time>2012-06-23T08:55:49Z</time>
            </trkpt>
            <trkpt lon="101.433938" lat="14.160478">
                <ele>19.363770</ele>
                <time>2012-06-23T08:56:36Z</time>
            </trkpt>
            <trkpt lon="101.433891" lat="14.160819">
                <ele>17.441162</ele>
                <time>2012-06-23T08:56:51Z</time>
            </trkpt>
            <trkpt lon="101.433415" lat="14.160768">
                <ele>20.324951</ele>
                <time>2012-06-23T08:58:13Z</time>
            </trkpt>
            <trkpt lon="101.433349" lat="14.160567">
                <ele>18.402344</ele>
                <time>2012-06-23T08:58:26Z</time>
            </trkpt>
            <trkpt lon="101.432689" lat="14.160491">
                <ele>20.324951</ele>
                <time>2012-06-23T08:59:21Z</time>
            </trkpt>
            <trkpt lon="101.432640" lat="14.160882">
                <ele>21.286377</ele>
                <time>2012-06-23T08:59:46Z</time>
            </trkpt>
            <trkpt lon="101.432619" lat="14.160991">
                <ele>21.286377</ele>
                <time>2012-06-23T08:59:51Z</time>
            </trkpt>
            <trkpt lon="101.432387" lat="14.161036">
                <ele>21.286377</ele>
                <time>2012-06-23T09:00:03Z</time>
            </trkpt>
            <trkpt lon="101.432399" lat="14.162111">
                <ele>20.805664</ele>
                <time>2012-06-23T09:00:34Z</time>
            </trkpt>
            <trkpt lon="101.433169" lat="14.162431">
                <ele>20.805664</ele>
                <time>2012-06-23T09:00:53Z</time>
            </trkpt>
            <trkpt lon="101.434111" lat="14.164028">
                <ele>20.805664</ele>
                <time>2012-06-23T09:01:34Z</time>
            </trkpt>
            <trkpt lon="101.434129" lat="14.165271">
                <ele>21.286377</ele>
                <time>2012-06-23T09:02:03Z</time>
            </trkpt>
            <trkpt lon="101.434003" lat="14.165491">
                <ele>20.805664</ele>
                <time>2012-06-23T09:02:09Z</time>
            </trkpt>
            <trkpt lon="101.433316" lat="14.166348">
                <ele>19.844360</ele>
                <time>2012-06-23T09:02:31Z</time>
            </trkpt>
            <trkpt lon="101.431925" lat="14.167644">
                <ele>20.324951</ele>
                <time>2012-06-23T09:03:09Z</time>
            </trkpt>
            <trkpt lon="101.430840" lat="14.168909">
                <ele>19.363770</ele>
                <time>2012-06-23T09:03:42Z</time>
            </trkpt>
            <trkpt lon="101.429702" lat="14.169831">
                <ele>20.324951</ele>
                <time>2012-06-23T09:04:09Z</time>
            </trkpt>
            <trkpt lon="101.428634" lat="14.171116">
                <ele>21.766968</ele>
                <time>2012-06-23T09:04:44Z</time>
            </trkpt>
            <trkpt lon="101.426935" lat="14.172831">
                <ele>21.766968</ele>
                <time>2012-06-23T09:05:35Z</time>
            </trkpt>
            <trkpt lon="101.424997" lat="14.173906">
                <ele>21.766968</ele>
                <time>2012-06-23T09:06:21Z</time>
            </trkpt>
            <trkpt lon="101.423741" lat="14.174798">
                <ele>21.286377</ele>
                <time>2012-06-23T09:06:54Z</time>
            </trkpt>
            <trkpt lon="101.423299" lat="14.175574">
                <ele>21.286377</ele>
                <time>2012-06-23T09:07:13Z</time>
            </trkpt>
            <trkpt lon="101.422753" lat="14.178421">
                <ele>25.131714</ele>
                <time>2012-06-23T09:08:17Z</time>
            </trkpt>
            <trkpt lon="101.422457" lat="14.178968">
                <ele>27.054321</ele>
                <time>2012-06-23T09:08:33Z</time>
            </trkpt>
            <trkpt lon="101.421722" lat="14.179310">
                <ele>28.496216</ele>
                <time>2012-06-23T09:08:51Z</time>
            </trkpt>
            <trkpt lon="101.420881" lat="14.179557">
                <ele>27.054321</ele>
                <time>2012-06-23T09:09:08Z</time>
            </trkpt>
            <trkpt lon="101.418997" lat="14.180496">
                <ele>25.131714</ele>
                <time>2012-06-23T09:09:45Z</time>
            </trkpt>
            <trkpt lon="101.414387" lat="14.183200">
                <ele>27.054321</ele>
                <time>2012-06-23T09:11:25Z</time>
            </trkpt>
            <trkpt lon="101.413366" lat="14.184002">
                <ele>27.054321</ele>
                <time>2012-06-23T09:11:48Z</time>
            </trkpt>
            <trkpt lon="101.412476" lat="14.184546">
                <ele>26.573608</ele>
                <time>2012-06-23T09:12:07Z</time>
            </trkpt>
            <trkpt lon="101.412081" lat="14.187463">
                <ele>27.534912</ele>
                <time>2012-06-23T09:13:04Z</time>
            </trkpt>
            <trkpt lon="101.411288" lat="14.188350">
                <ele>27.534912</ele>
                <time>2012-06-23T09:13:25Z</time>
            </trkpt>
            <trkpt lon="101.410104" lat="14.189398">
                <ele>26.573608</ele>
                <time>2012-06-23T09:13:52Z</time>
            </trkpt>
            <trkpt lon="101.409777" lat="14.190682">
                <ele>26.092896</ele>
                <time>2012-06-23T09:14:19Z</time>
            </trkpt>
            <trkpt lon="101.409868" lat="14.190443">
                <ele>27.054321</ele>
                <time>2012-06-23T09:14:30Z</time>
            </trkpt>
            <trkpt lon="101.410075" lat="14.190411">
                <ele>27.534912</ele>
                <time>2012-06-23T09:14:35Z</time>
            </trkpt>
            <trkpt lon="101.410355" lat="14.190444">
                <ele>26.092896</ele>
                <time>2012-06-23T09:14:40Z</time>
            </trkpt>
            <trkpt lon="101.410529" lat="14.190626">
                <ele>25.612305</ele>
                <time>2012-06-23T09:14:45Z</time>
            </trkpt>
            <trkpt lon="101.412134" lat="14.193519">
                <ele>28.496216</ele>
                <time>2012-06-23T09:15:47Z</time>
            </trkpt>
            <trkpt lon="101.412770" lat="14.193757">
                <ele>29.457520</ele>
                <time>2012-06-23T09:16:01Z</time>
            </trkpt>
            <trkpt lon="101.413624" lat="14.194785">
                <ele>32.341553</ele>
                <time>2012-06-23T09:16:35Z</time>
            </trkpt>
            <trkpt lon="101.413684" lat="14.195585">
                <ele>32.341553</ele>
                <time>2012-06-23T09:17:01Z</time>
            </trkpt>
            <trkpt lon="101.413975" lat="14.196055">
                <ele>33.302856</ele>
                <time>2012-06-23T09:17:17Z</time>
            </trkpt>
            <trkpt lon="101.414306" lat="14.196997">
                <ele>32.822266</ele>
                <time>2012-06-23T09:17:46Z</time>
            </trkpt>
            <trkpt lon="101.414380" lat="14.197948">
                <ele>45.319214</ele>
                <time>2012-06-23T09:18:54Z</time>
            </trkpt>
            <trkpt lon="101.414356" lat="14.198206">
                <ele>46.761231</ele>
                <time>2012-06-23T09:19:24Z</time>
            </trkpt>
            <trkpt lon="101.414161" lat="14.198891">
                <ele>42.435425</ele>
                <time>2012-06-23T09:20:40Z</time>
            </trkpt>
            <trkpt lon="101.414194" lat="14.199892">
                <ele>50.606567</ele>
                <time>2012-06-23T09:23:29Z</time>
            </trkpt>
            <trkpt lon="101.413638" lat="14.200722">
                <ele>47.722534</ele>
                <time>2012-06-23T09:25:33Z</time>
            </trkpt>
            <trkpt lon="101.413437" lat="14.200978">
                <ele>42.916016</ele>
                <time>2012-06-23T09:26:19Z</time>
            </trkpt>
            <trkpt lon="101.413196" lat="14.200964">
                <ele>41.954712</ele>
                <time>2012-06-23T09:26:36Z</time>
            </trkpt>
            <trkpt lon="101.413288" lat="14.201341">
                <ele>40.993408</ele>
                <time>2012-06-23T09:27:31Z</time>
            </trkpt>
            <trkpt lon="101.413112" lat="14.203040">
                <ele>37.628662</ele>
                <time>2012-06-23T09:28:58Z</time>
            </trkpt>
            <trkpt lon="101.412699" lat="14.203176">
                <ele>38.590088</ele>
                <time>2012-06-23T09:29:21Z</time>
            </trkpt>
            <trkpt lon="101.412304" lat="14.203207">
                <ele>38.109375</ele>
                <time>2012-06-23T09:29:57Z</time>
            </trkpt>
            <trkpt lon="101.412347" lat="14.204041">
                <ele>35.706055</ele>
                <time>2012-06-23T09:30:27Z</time>
            </trkpt>
            <trkpt lon="101.411396" lat="14.203948">
                <ele>37.628662</ele>
                <time>2012-06-23T09:31:00Z</time>
            </trkpt>
            <trkpt lon="101.410747" lat="14.203675">
                <ele>35.706055</ele>
                <time>2012-06-23T09:31:24Z</time>
            </trkpt>
            <trkpt lon="101.410213" lat="14.203088">
                <ele>32.822266</ele>
                <time>2012-06-23T09:31:46Z</time>
            </trkpt>
            <trkpt lon="101.409185" lat="14.202691">
                <ele>31.860718</ele>
                <time>2012-06-23T09:32:15Z</time>
            </trkpt>
            <trkpt lon="101.408181" lat="14.202749">
                <ele>31.860718</ele>
                <time>2012-06-23T09:32:48Z</time>
            </trkpt>
            <trkpt lon="101.408171" lat="14.202908">
                <ele>32.822266</ele>
                <time>2012-06-23T09:32:55Z</time>
            </trkpt>
            <trkpt lon="101.408417" lat="14.205753">
                <ele>36.186768</ele>
                <time>2012-06-23T09:34:28Z</time>
            </trkpt>
            <trkpt lon="101.410030" lat="14.205656">
                <ele>36.186768</ele>
                <time>2012-06-23T09:36:34Z</time>
            </trkpt>
            <trkpt lon="101.410489" lat="14.205750">
                <ele>35.706055</ele>
                <time>2012-06-23T09:36:52Z</time>
            </trkpt>
            <trkpt lon="101.410683" lat="14.205854">
                <ele>33.783447</ele>
                <time>2012-06-23T09:37:08Z</time>
            </trkpt>
            <trkpt lon="101.410865" lat="14.205971">
                <ele>33.783447</ele>
                <time>2012-06-23T09:37:35Z</time>
            </trkpt>
            <trkpt lon="101.410845" lat="14.206173">
                <ele>35.225464</ele>
                <time>2012-06-23T09:37:52Z</time>
            </trkpt>
            <trkpt lon="101.410853" lat="14.206287">
                <ele>34.744873</ele>
                <time>2012-06-23T09:37:59Z</time>
            </trkpt>
            <trkpt lon="101.411214" lat="14.206337">
                <ele>35.225464</ele>
                <time>2012-06-23T09:38:17Z</time>
            </trkpt>
            <trkpt lon="101.411328" lat="14.206687">
                <ele>35.225464</ele>
                <time>2012-06-23T09:38:33Z</time>
            </trkpt>
            <trkpt lon="101.412533" lat="14.207060">
                <ele>40.993408</ele>
                <time>2012-06-23T09:39:22Z</time>
            </trkpt>
            <trkpt lon="101.413164" lat="14.207330">
                <ele>41.954712</ele>
                <time>2012-06-23T09:39:50Z</time>
            </trkpt>
            <trkpt lon="101.413468" lat="14.208262">
                <ele>46.761231</ele>
                <time>2012-06-23T09:40:37Z</time>
            </trkpt>
            <trkpt lon="101.414032" lat="14.208816">
                <ele>50.125977</ele>
                <time>2012-06-23T09:41:18Z</time>
            </trkpt>
            <trkpt lon="101.413868" lat="14.209106">
                <ele>49.645264</ele>
                <time>2012-06-23T09:41:34Z</time>
            </trkpt>
            <trkpt lon="101.412425" lat="14.209060">
                <ele>47.722534</ele>
                <time>2012-06-23T09:42:21Z</time>
            </trkpt>
            <trkpt lon="101.411887" lat="14.209065">
                <ele>46.761231</ele>
                <time>2012-06-23T09:42:35Z</time>
            </trkpt>
            <trkpt lon="101.409664" lat="14.209679">
                <ele>38.590088</ele>
                <time>2012-06-23T09:43:52Z</time>
            </trkpt>
            <trkpt lon="101.409935" lat="14.210234">
                <ele>37.148071</ele>
                <time>2012-06-23T09:44:13Z</time>
            </trkpt>
            <trkpt lon="101.410232" lat="14.210413">
                <ele>36.667481</ele>
                <time>2012-06-23T09:44:26Z</time>
            </trkpt>
            <trkpt lon="101.410619" lat="14.211165">
                <ele>37.628662</ele>
                <time>2012-06-23T09:45:00Z</time>
            </trkpt>
            <trkpt lon="101.410760" lat="14.211473">
                <ele>37.148071</ele>
                <time>2012-06-23T09:45:12Z</time>
            </trkpt>
            <trkpt lon="101.409532" lat="14.211315">
                <ele>36.667481</ele>
                <time>2012-06-23T09:45:49Z</time>
            </trkpt>
            <trkpt lon="101.409009" lat="14.211292">
                <ele>33.783447</ele>
                <time>2012-06-23T09:46:04Z</time>
            </trkpt>
            <trkpt lon="101.408620" lat="14.211140">
                <ele>32.822266</ele>
                <time>2012-06-23T09:46:44Z</time>
            </trkpt>
            <trkpt lon="101.408338" lat="14.211230">
                <ele>34.744873</ele>
                <time>2012-06-23T09:47:14Z</time>
            </trkpt>
            <trkpt lon="101.409539" lat="14.212935">
                <ele>36.186768</ele>
                <time>2012-06-23T09:48:17Z</time>
            </trkpt>
            <trkpt lon="101.410152" lat="14.214120">
                <ele>40.993408</ele>
                <time>2012-06-23T09:48:55Z</time>
            </trkpt>
            <trkpt lon="101.410741" lat="14.215367">
                <ele>40.032105</ele>
                <time>2012-06-23T09:49:30Z</time>
            </trkpt>
            <trkpt lon="101.411628" lat="14.215994">
                <ele>40.032105</ele>
                <time>2012-06-23T09:49:54Z</time>
            </trkpt>
            <trkpt lon="101.411500" lat="14.216561">
                <ele>39.551269</ele>
                <time>2012-06-23T09:50:11Z</time>
            </trkpt>
            <trkpt lon="101.411795" lat="14.217905">
                <ele>42.916016</ele>
                <time>2012-06-23T09:51:10Z</time>
            </trkpt>
            <trkpt lon="101.411730" lat="14.218444">
                <ele>45.799927</ele>
                <time>2012-06-23T09:51:37Z</time>
            </trkpt>
            <trkpt lon="101.411444" lat="14.218971">
                <ele>45.319214</ele>
                <time>2012-06-23T09:51:59Z</time>
            </trkpt>
            <trkpt lon="101.410974" lat="14.219391">
                <ele>43.396606</ele>
                <time>2012-06-23T09:52:15Z</time>
            </trkpt>
            <trkpt lon="101.410560" lat="14.219232">
                <ele>42.916016</ele>
                <time>2012-06-23T09:52:30Z</time>
            </trkpt>
            <trkpt lon="101.410133" lat="14.219253">
                <ele>42.916016</ele>
                <time>2012-06-23T09:52:43Z</time>
            </trkpt>
            <trkpt lon="101.410019" lat="14.219491">
                <ele>42.916016</ele>
                <time>2012-06-23T09:52:53Z</time>
            </trkpt>
            <trkpt lon="101.409943" lat="14.219685">
                <ele>40.993408</ele>
                <time>2012-06-23T09:53:12Z</time>
            </trkpt>
            <trkpt lon="101.409662" lat="14.219656">
                <ele>41.473999</ele>
                <time>2012-06-23T09:53:48Z</time>
            </trkpt>
            <trkpt lon="101.409486" lat="14.219919">
                <ele>40.993408</ele>
                <time>2012-06-23T09:54:05Z</time>
            </trkpt>
            <trkpt lon="101.408416" lat="14.220220">
                <ele>38.109375</ele>
                <time>2012-06-23T09:54:36Z</time>
            </trkpt>
            <trkpt lon="101.408210" lat="14.220583">
                <ele>37.628662</ele>
                <time>2012-06-23T09:54:49Z</time>
            </trkpt>
            <trkpt lon="101.408395" lat="14.220240">
                <ele>38.109375</ele>
                <time>2012-06-23T09:55:04Z</time>
            </trkpt>
            <trkpt lon="101.409088" lat="14.219951">
                <ele>39.551269</ele>
                <time>2012-06-23T09:55:30Z</time>
            </trkpt>
            <trkpt lon="101.409033" lat="14.219852">
                <ele>39.551269</ele>
                <time>2012-06-23T09:55:35Z</time>
            </trkpt>
            <trkpt lon="101.408477" lat="14.218087">
                <ele>36.667481</ele>
                <time>2012-06-23T09:56:17Z</time>
            </trkpt>
            <trkpt lon="101.407841" lat="14.218025">
                <ele>35.225464</ele>
                <time>2012-06-23T09:56:30Z</time>
            </trkpt>
            <trkpt lon="101.407654" lat="14.217346">
                <ele>34.744873</ele>
                <time>2012-06-23T09:56:47Z</time>
            </trkpt>
            <trkpt lon="101.407359" lat="14.217023">
                <ele>36.186768</ele>
                <time>2012-06-23T09:56:55Z</time>
            </trkpt>
            <trkpt lon="101.406520" lat="14.216807">
                <ele>34.744873</ele>
                <time>2012-06-23T09:57:16Z</time>
            </trkpt>
            <trkpt lon="101.406379" lat="14.216813">
                <ele>34.264160</ele>
                <time>2012-06-23T09:57:27Z</time>
            </trkpt>
        </trkseg>
    </trk>
</gpx>